createdAt,value
2022-09-27T00:01:35.692Z,7.78
2022-09-27T00:04:08.889Z,7.57
2022-09-27T00:06:41.772Z,7.30
2022-09-27T00:09:15.090Z,7.62
2022-09-27T00:11:48.520Z,7.70
2022-09-27T00:14:20.994Z,7.53
2022-09-27T00:16:53.645Z,8.15
2022-09-27T00:19:27.781Z,7.60
2022-09-27T00:22:01.599Z,7.92
2022-09-27T00:24:34.434Z,8.08
2022-09-27T00:27:06.924Z,7.80
2022-09-27T00:29:39.569Z,7.47
2022-09-27T00:32:12.075Z,7.75
2022-09-27T00:34:44.500Z,8.08
2022-09-27T00:37:17.494Z,7.90
2022-09-27T00:39:50.648Z,8.05
2022-09-27T00:42:23.382Z,8.08
2022-09-27T00:45:13.836Z,7.75
2022-09-27T00:47:55.378Z,7.70
2022-09-27T00:50:35.737Z,7.35
2022-09-27T00:53:17.124Z,7.70
2022-09-27T00:55:56.813Z,8.28
2022-09-27T00:58:34.037Z,8.15
2022-09-27T01:01:10.725Z,7.90
2022-09-27T01:04:06.475Z,7.45
2022-09-27T01:06:39.053Z,8.13
2022-09-27T01:09:12.218Z,8.48
2022-09-27T01:11:51.801Z,8.25
2022-09-27T01:14:38.386Z,8.50
2022-09-27T01:17:55.996Z,8.43
2022-09-27T01:21:05.053Z,7.78
2022-09-27T01:24:05.228Z,8.30
2022-09-27T01:27:22.141Z,8.68
2022-09-27T01:30:17.482Z,8.38
2022-09-27T01:33:24.465Z,8.78
2022-09-27T01:36:28.340Z,8.43
2022-09-27T01:39:29.790Z,8.60
2022-09-27T01:45:01.401Z,8.80
2022-09-27T01:47:39.669Z,8.65
2022-09-27T01:50:36.527Z,9.08
2022-09-27T01:53:28.305Z,8.63
2022-09-27T01:56:07.780Z,9.75
2022-09-27T01:59:01.642Z,9.35
2022-09-27T02:01:36.054Z,9.50
2022-09-27T02:04:12.979Z,9.85
2022-09-27T02:06:49.485Z,9.55
2022-09-27T02:09:41.304Z,9.45
2022-09-27T02:12:27.213Z,9.83
2022-09-27T02:15:33.225Z,10.00
2022-09-27T02:18:15.876Z,10.75
2022-09-27T02:20:53.637Z,10.98
2022-09-27T02:23:51.619Z,10.93
2022-09-27T02:26:38.020Z,11.75
2022-09-27T02:29:21.134Z,11.80
2022-09-27T02:31:56.419Z,11.55
2022-09-27T02:34:30.769Z,11.33
2022-09-27T02:37:03.830Z,11.83
2022-09-27T02:39:37.014Z,11.15
2022-09-27T02:42:11.121Z,11.65
2022-09-27T02:44:43.817Z,12.15
2022-09-27T02:47:47.507Z,12.33
2022-09-27T02:50:34.520Z,11.70
2022-09-27T02:53:41.590Z,12.10
2022-09-27T02:57:02.117Z,13.03
2022-09-27T03:00:12.041Z,13.58
2022-09-27T03:03:24.471Z,13.25
2022-09-27T03:06:06.391Z,12.78
2022-09-27T03:08:39.729Z,12.40
2022-09-27T03:11:13.628Z,13.40
2022-09-27T03:14:07.358Z,13.90
2022-09-27T03:16:21.614Z,13.98
2022-09-27T03:18:55.827Z,13.80
2022-09-27T03:21:46.589Z,15.05
2022-09-27T03:24:19.375Z,13.15
2022-09-27T03:26:52.657Z,14.58
2022-09-27T03:29:25.710Z,14.58
2022-09-27T03:32:01.138Z,14.83
2022-09-27T03:34:54.160Z,13.93
2022-09-27T03:40:00.157Z,13.70
2022-09-27T03:42:32.999Z,15.18
2022-09-27T03:45:06.968Z,15.65
2022-09-27T03:47:44.116Z,15.50
2022-09-27T03:50:17.845Z,15.90
2022-09-27T03:52:50.394Z,15.13
2022-09-27T03:55:23.148Z,16.37
2022-09-27T03:57:56.047Z,15.83
2022-09-27T04:00:31.254Z,15.70
2022-09-27T04:03:06.466Z,16.60
2022-09-27T04:05:51.001Z,16.20
2022-09-27T04:08:25.354Z,17.10
2022-09-27T04:10:58.738Z,15.55
2022-09-27T04:16:05.530Z,17.23
2022-09-27T04:18:48.605Z,16.75
2022-09-27T04:21:40.383Z,16.48
2022-09-27T04:24:14.927Z,17.40
2022-09-27T04:26:49.400Z,16.52
2022-09-27T04:29:24.287Z,16.30
2022-09-27T04:31:58.324Z,16.32
2022-09-27T04:34:56.264Z,15.95
2022-09-27T04:37:30.103Z,16.20
2022-09-27T04:40:08.648Z,15.88
2022-09-27T04:42:41.675Z,16.45
2022-09-27T04:45:15.602Z,15.70
2022-09-27T04:47:52.677Z,17.07
2022-09-27T04:50:25.254Z,16.65
2022-09-27T04:53:00.572Z,16.97
2022-09-27T04:55:33.406Z,17.73
2022-09-27T04:58:06.477Z,16.85
2022-09-27T05:00:39.180Z,16.93
2022-09-27T05:03:14.173Z,16.55
2022-09-27T05:05:48.404Z,18.30
2022-09-27T05:08:21.885Z,17.15
2022-09-27T05:11:05.705Z,18.40
2022-09-27T05:13:38.575Z,18.40
2022-09-27T05:16:11.458Z,18.15
2022-09-27T05:18:57.949Z,17.12
2022-09-27T05:21:49.066Z,18.85
2022-09-27T05:24:22.357Z,18.82
2022-09-27T05:26:55.927Z,18.80
2022-09-27T05:29:28.781Z,18.60
2022-09-27T05:32:03.839Z,18.27
2022-09-27T05:34:36.357Z,19.07
2022-09-27T05:37:10.577Z,18.85
2022-09-27T05:39:44.052Z,18.55
2022-09-27T05:42:20.348Z,20.10
2022-09-27T05:44:53.517Z,19.20
2022-09-27T05:47:25.931Z,18.87
2022-09-27T05:49:59.076Z,18.75
2022-09-27T05:52:32.254Z,19.17
2022-09-27T05:55:05.575Z,19.30
2022-09-27T05:57:38.479Z,20.00
2022-09-27T06:00:13.218Z,16.52
2022-09-27T06:02:49.132Z,18.12
2022-09-27T06:05:40.688Z,17.62
2022-09-27T06:08:28.340Z,18.48
2022-09-27T06:11:06.213Z,20.40
2022-09-27T06:13:39.455Z,20.80
2022-09-27T06:16:13.059Z,20.02
2022-09-27T06:18:47.682Z,20.00
2022-09-27T06:21:21.420Z,19.03
2022-09-27T06:24:01.357Z,20.08
2022-09-27T06:26:38.386Z,19.70
2022-09-27T06:29:22.502Z,20.55
2022-09-27T06:32:01.258Z,19.17
2022-09-27T06:34:36.803Z,21.23
2022-09-27T06:37:09.790Z,21.52
2022-09-27T06:39:42.771Z,19.98
2022-09-27T06:42:23.344Z,24.27
2022-09-27T06:45:06.717Z,23.95
2022-09-27T06:47:57.330Z,24.85
2022-09-27T06:50:33.901Z,26.68
2022-09-27T06:55:40.153Z,27.82
2022-09-27T06:58:32.680Z,27.20
2022-09-27T07:01:23.928Z,28.10
2022-09-27T07:04:16.299Z,26.33
2022-09-27T07:07:01.634Z,25.80
2022-09-27T07:09:37.514Z,26.55
2022-09-27T07:12:12.609Z,24.57
2022-09-27T07:14:46.074Z,24.85
2022-09-27T07:17:23.288Z,26.50
2022-09-27T07:22:31.149Z,24.90
2022-09-27T07:25:05.687Z,24.32
2022-09-27T07:27:42.303Z,27.15
2022-09-27T07:30:15.418Z,27.40
2022-09-27T07:32:48.457Z,26.68
2022-09-27T07:35:21.826Z,31.20
2022-09-27T07:37:54.277Z,25.15
2022-09-27T07:40:27.867Z,26.35
2022-09-27T07:43:00.842Z,27.70
2022-09-27T07:45:34.377Z,28.13
2022-09-27T07:48:24.352Z,30.12
2022-09-27T07:51:06.683Z,29.48
2022-09-27T07:53:54.402Z,27.48
2022-09-27T07:56:32.103Z,27.20
2022-09-27T07:59:05.274Z,30.37
2022-09-27T08:01:39.830Z,28.27
2022-09-27T08:04:13.325Z,31.33
2022-09-27T08:06:46.873Z,29.07
2022-09-27T08:09:19.792Z,31.07
2022-09-27T08:11:54.313Z,30.52
2022-09-27T08:14:28.064Z,29.35
2022-09-27T08:17:00.873Z,29.42
2022-09-27T08:19:34.197Z,29.50
2022-09-27T08:22:24.798Z,32.25
2022-09-27T08:24:59.955Z,28.83
2022-09-27T08:27:43.307Z,28.67
2022-09-27T08:30:20.526Z,28.20
2022-09-27T08:32:59.216Z,27.87
2022-09-27T08:35:34.298Z,28.30
2022-09-27T08:38:07.520Z,31.48
2022-09-27T08:41:03.662Z,29.85
2022-09-27T08:44:11.081Z,29.27
2022-09-27T08:47:11.589Z,30.55
2022-09-27T08:49:51.540Z,26.77
2022-09-27T08:52:34.771Z,29.90
2022-09-27T08:55:24.234Z,29.10
2022-09-27T08:57:59.709Z,28.05
2022-09-27T09:00:33.613Z,29.45
2022-09-27T09:03:07.598Z,29.82
2022-09-27T09:05:41.809Z,29.12
2022-09-27T09:08:42.407Z,30.20
2022-09-27T09:11:46.624Z,30.08
2022-09-27T09:15:09.423Z,30.65
2022-09-27T09:18:00.714Z,28.90
2022-09-27T09:21:01.511Z,28.65
2022-09-27T09:24:16.329Z,27.35
2022-09-27T09:27:01.148Z,27.37
2022-09-27T09:29:58.101Z,28.75
2022-09-27T09:32:47.804Z,27.52
2022-09-27T09:35:34.188Z,30.92
2022-09-27T09:38:24.707Z,29.92
2022-09-27T09:41:13.437Z,29.72
2022-09-27T09:43:53.741Z,30.82
2022-09-27T09:46:31.321Z,30.65
2022-09-27T09:49:31.754Z,30.43
2022-09-27T09:52:09.314Z,30.30
2022-09-27T09:54:55.653Z,30.75
2022-09-27T09:57:41.519Z,29.92
2022-09-27T10:00:18.248Z,31.33
2022-09-27T10:02:52.668Z,28.87
2022-09-27T10:05:28.329Z,31.07
2022-09-27T10:08:06.080Z,30.48
2022-09-27T10:10:39.442Z,31.00
2022-09-27T10:13:31.533Z,30.43
2022-09-27T10:16:09.180Z,33.08
2022-09-27T10:18:47.629Z,30.62
2022-09-27T10:21:33.144Z,31.05
2022-09-27T10:24:28.890Z,30.17
2022-09-27T10:27:04.322Z,31.20
2022-09-27T10:29:40.466Z,29.70
2022-09-27T10:32:37.357Z,29.32
2022-09-27T10:35:35.418Z,29.25
2022-09-27T10:38:30.036Z,30.50
2022-09-27T10:41:26.300Z,28.57
2022-09-27T10:44:19.095Z,30.27
2022-09-27T10:47:02.507Z,28.70
2022-09-27T10:49:45.218Z,30.52
2022-09-27T10:52:22.409Z,29.23
2022-09-27T10:54:59.851Z,30.32
2022-09-27T10:57:33.114Z,29.20
2022-09-27T11:00:09.917Z,29.87
2022-09-27T11:02:42.725Z,29.23
2022-09-27T11:05:31.265Z,28.75
2022-09-27T11:08:24.796Z,29.30
2022-09-27T11:11:20.064Z,29.48
2022-09-27T11:14:06.049Z,33.18
2022-09-27T11:16:53.580Z,27.15
2022-09-27T11:20:00.612Z,29.55
2022-09-27T11:22:47.336Z,27.90
2022-09-27T11:25:48.513Z,29.20
2022-09-27T11:28:43.817Z,28.20
2022-09-27T11:31:50.119Z,29.40
2022-09-27T11:34:59.120Z,31.73
2022-09-27T11:37:50.044Z,27.98
2022-09-27T11:40:36.759Z,25.95
2022-09-27T11:43:38.791Z,25.97
2022-09-27T11:46:34.195Z,24.25
2022-09-27T11:49:22.356Z,22.22
2022-09-27T11:52:20.865Z,24.10
2022-09-27T11:55:25.539Z,23.25
2022-09-27T11:58:20.121Z,22.73
2022-09-27T12:01:24.095Z,23.65
2022-09-27T12:04:17.923Z,24.40
2022-09-27T12:07:19.084Z,24.20
2022-09-27T12:09:58.694Z,23.02
2022-09-27T12:12:53.611Z,22.02
2022-09-27T12:15:33.555Z,21.65
2022-09-27T12:18:30.468Z,23.50
2022-09-27T12:21:06.250Z,23.10
2022-09-27T12:23:53.317Z,23.65
2022-09-27T12:26:44.303Z,23.52
2022-09-27T12:29:36.435Z,23.30
2022-09-27T12:32:19.879Z,22.98
2022-09-27T12:35:15.514Z,23.22
2022-09-27T12:38:13.205Z,23.05
2022-09-27T12:40:56.309Z,22.30
2022-09-27T12:43:33.704Z,22.73
2022-09-27T12:46:30.711Z,23.80
2022-09-27T12:49:17.724Z,22.52
2022-09-27T12:52:09.981Z,24.12
2022-09-27T12:55:30.465Z,23.07
2022-09-27T12:58:41.222Z,30.08
2022-09-27T13:01:22.028Z,26.07
2022-09-27T13:04:27.597Z,25.68
2022-09-27T13:07:18.659Z,23.15
2022-09-27T13:10:18.053Z,21.33
2022-09-27T13:12:54.692Z,20.30
2022-09-27T13:15:46.211Z,19.20
2022-09-27T13:18:59.836Z,20.50
2022-09-27T13:21:52.682Z,20.70
2022-09-27T13:24:47.340Z,25.55
2022-09-27T13:27:34.494Z,21.40
2022-09-27T13:30:20.010Z,23.02
2022-09-27T13:33:17.239Z,23.85
2022-09-27T13:36:31.922Z,24.20
2022-09-27T13:39:20.067Z,26.97
2022-09-27T13:41:59.234Z,26.95
2022-09-27T13:44:55.095Z,29.40
2022-09-27T13:47:48.838Z,28.77
2022-09-27T13:50:43.394Z,27.67
2022-09-27T13:53:37.256Z,28.00
2022-09-27T13:56:30.933Z,44.23
2022-09-27T13:59:51.744Z,73.55
2022-09-27T14:02:32.869Z,37.63
2022-09-27T14:05:08.186Z,38.17
2022-09-27T14:07:43.401Z,33.88
2022-09-27T14:10:22.201Z,33.30
2022-09-27T14:12:54.723Z,32.93
2022-09-27T14:15:51.689Z,32.73
2022-09-27T14:18:24.886Z,30.30
2022-09-27T14:21:09.650Z,33.48
2022-09-27T14:23:44.148Z,31.87
2022-09-27T14:26:26.610Z,32.05
2022-09-27T14:28:59.355Z,33.10
2022-09-27T14:31:35.011Z,30.95
2022-09-27T14:34:09.837Z,31.75
2022-09-27T14:37:03.735Z,42.38
2022-09-27T14:39:39.383Z,35.90
2022-09-27T14:42:22.457Z,34.40
2022-09-27T14:44:57.592Z,33.42
2022-09-27T14:47:30.626Z,32.38
2022-09-27T14:50:07.264Z,32.15
2022-09-27T14:52:41.203Z,31.37
2022-09-27T14:55:20.985Z,33.15
2022-09-27T14:58:00.599Z,31.87
2022-09-27T15:00:36.678Z,32.78
2022-09-27T15:03:11.781Z,30.40
2022-09-27T15:05:45.106Z,35.20
2022-09-27T15:08:28.133Z,39.00
2022-09-27T15:11:08.668Z,33.63
2022-09-27T15:13:44.664Z,35.90
2022-09-27T15:16:20.311Z,36.70
2022-09-27T15:19:25.023Z,33.92
2022-09-27T15:22:00.254Z,31.55
2022-09-27T15:24:46.952Z,33.45
2022-09-27T15:27:25.209Z,34.15
2022-09-27T15:29:58.849Z,34.20
2022-09-27T15:32:31.543Z,33.30
2022-09-27T15:35:10.543Z,33.07
2022-09-27T15:37:43.926Z,31.52
2022-09-27T15:40:42.202Z,33.70
2022-09-27T15:43:50.193Z,36.30
2022-09-27T15:46:40.311Z,39.88
2022-09-27T15:49:40.221Z,38.33
2022-09-27T15:52:13.952Z,33.95
2022-09-27T15:54:46.788Z,33.95
2022-09-27T15:57:19.355Z,31.17
2022-09-27T15:59:52.849Z,31.82
2022-09-27T16:02:25.944Z,29.48
2022-09-27T16:04:58.502Z,28.65
2022-09-27T16:07:30.921Z,27.67
2022-09-27T16:10:04.487Z,27.22
2022-09-27T16:12:38.285Z,30.12
2022-09-27T16:15:11.966Z,28.90
2022-09-27T16:17:45.059Z,28.80
2022-09-27T16:20:23.374Z,28.47
2022-09-27T16:22:56.561Z,27.40
2022-09-27T16:25:29.041Z,28.32
2022-09-27T16:28:02.555Z,26.90
2022-09-27T16:30:36.178Z,27.42
2022-09-27T16:33:09.012Z,25.97
2022-09-27T16:35:41.806Z,27.30
2022-09-27T16:38:14.444Z,28.27
2022-09-27T16:40:46.866Z,31.55
2022-09-27T16:43:20.596Z,30.08
2022-09-27T16:45:53.324Z,30.72
2022-09-27T16:48:26.409Z,32.95
2022-09-27T16:51:21.267Z,31.07
2022-09-27T16:53:54.700Z,28.20
2022-09-27T16:56:28.951Z,29.05
2022-09-27T16:59:03.513Z,31.65
2022-09-27T17:01:37.444Z,31.23
2022-09-27T17:04:10.231Z,36.35
2022-09-27T17:06:43.188Z,27.90
2022-09-27T17:09:16.710Z,28.57
2022-09-27T17:11:49.587Z,28.47
2022-09-27T17:14:22.735Z,27.00
2022-09-27T17:16:55.358Z,27.50
2022-09-27T17:19:28.672Z,32.73
2022-09-27T17:22:03.447Z,28.05
2022-09-27T17:24:57.548Z,26.40
2022-09-27T17:27:30.208Z,25.85
2022-09-27T17:30:03.090Z,27.95
2022-09-27T17:32:39.898Z,41.83
2022-09-27T17:35:12.391Z,32.60
2022-09-27T17:37:46.548Z,30.23
2022-09-27T17:40:20.586Z,27.67
2022-09-27T17:42:53.082Z,26.93
2022-09-27T17:45:25.805Z,26.77
2022-09-27T17:48:16.587Z,25.62
2022-09-27T17:50:49.717Z,25.95
2022-09-27T17:53:24.696Z,26.90
2022-09-27T17:56:02.866Z,25.25
2022-09-27T17:58:36.334Z,26.95
2022-09-27T18:01:09.500Z,25.55
2022-09-27T18:03:42.234Z,28.47
2022-09-27T18:06:19.730Z,27.57
2022-09-27T18:08:55.048Z,28.23
2022-09-27T18:11:31.238Z,27.22
2022-09-27T18:14:04.963Z,28.77
2022-09-27T18:16:42.035Z,30.77
2022-09-27T18:19:17.245Z,29.40
2022-09-27T18:21:50.690Z,34.73
2022-09-27T18:24:23.694Z,28.03
2022-09-27T18:26:57.376Z,29.02
2022-09-27T18:29:30.330Z,27.13
2022-09-27T18:32:03.500Z,29.92
2022-09-27T18:34:36.921Z,27.48
2022-09-27T18:37:09.547Z,23.95
2022-09-27T18:39:42.117Z,27.22
2022-09-27T18:42:15.227Z,29.05
2022-09-27T18:44:47.884Z,25.77
2022-09-27T18:47:23.832Z,23.22
2022-09-27T18:49:58.367Z,25.40
2022-09-27T18:52:31.137Z,23.62
2022-09-27T18:55:04.368Z,24.05
2022-09-27T18:57:37.815Z,23.15
2022-09-27T19:00:12.178Z,24.25
2022-09-27T19:02:44.963Z,22.50
2022-09-27T19:05:18.615Z,21.93
2022-09-27T19:07:52.623Z,21.12
2022-09-27T19:10:27.867Z,22.40
2022-09-27T19:13:01.468Z,22.60
2022-09-27T19:15:35.250Z,23.77
2022-09-27T19:18:09.482Z,22.05
2022-09-27T19:20:42.474Z,22.95
2022-09-27T19:23:15.789Z,22.55
2022-09-27T19:25:48.252Z,24.40
2022-09-27T19:28:21.417Z,29.45
2022-09-27T19:30:54.084Z,23.05
2022-09-27T19:33:27.751Z,26.42
2022-09-27T19:36:24.562Z,25.85
2022-09-27T19:38:59.553Z,25.12
2022-09-27T19:41:32.119Z,22.20
2022-09-27T19:44:04.648Z,23.80
2022-09-27T19:46:38.122Z,26.60
2022-09-27T19:49:10.732Z,20.95
2022-09-27T19:51:43.991Z,21.20
2022-09-27T19:54:17.307Z,21.40
2022-09-27T19:56:50.909Z,21.35
2022-09-27T19:59:25.023Z,20.17
2022-09-27T20:01:57.509Z,20.52
2022-09-27T20:04:29.901Z,20.97
2022-09-27T20:07:02.628Z,23.67
2022-09-27T20:09:38.405Z,33.13
2022-09-27T20:12:12.212Z,23.25
2022-09-27T20:14:46.503Z,27.70
2022-09-27T20:17:19.150Z,23.80
2022-09-27T20:19:51.725Z,31.10
2022-09-27T20:22:24.643Z,45.60
2022-09-27T20:24:57.308Z,41.60
2022-09-27T20:27:30.309Z,25.62
2022-09-27T20:30:03.962Z,31.40
2022-09-27T20:32:37.381Z,43.13
2022-09-27T20:35:11.464Z,23.55
2022-09-27T20:37:45.425Z,33.00
2022-09-27T20:40:18.182Z,59.48
2022-09-27T20:42:50.819Z,27.37
2022-09-27T20:45:23.553Z,35.17
2022-09-27T20:47:56.097Z,24.98
2022-09-27T20:50:29.316Z,26.80
2022-09-27T20:53:02.316Z,27.65
2022-09-27T20:55:35.940Z,23.98
2022-09-27T20:58:08.686Z,23.80
2022-09-27T21:00:41.150Z,23.95
2022-09-27T21:03:16.268Z,22.70
2022-09-27T21:06:01.005Z,21.37
2022-09-27T21:08:55.317Z,22.15
2022-09-27T21:11:27.990Z,22.15
2022-09-27T21:14:00.948Z,22.07
2022-09-27T21:16:36.011Z,22.52
2022-09-27T21:19:10.278Z,23.30
2022-09-27T21:21:43.508Z,21.15
2022-09-27T21:24:16.461Z,23.77
2022-09-27T21:26:50.094Z,24.07
2022-09-27T21:29:23.983Z,23.27
2022-09-27T21:31:56.447Z,23.37
2022-09-27T21:34:30.717Z,24.57
2022-09-27T21:37:04.484Z,22.22
2022-09-27T21:39:37.350Z,21.73
2022-09-27T21:42:09.888Z,22.58
2022-09-27T21:44:45.803Z,23.22
2022-09-27T21:47:23.891Z,22.48
2022-09-27T21:49:57.389Z,22.00
2022-09-27T21:52:30.055Z,23.60
2022-09-27T21:55:04.652Z,22.62
2022-09-27T21:57:38.356Z,21.73
2022-09-27T22:00:12.716Z,22.77
2022-09-27T22:02:45.204Z,21.77
2022-09-27T22:05:20.656Z,22.58
2022-09-27T22:07:53.474Z,22.77
2022-09-27T22:10:27.482Z,24.43
2022-09-27T22:13:01.042Z,23.02
2022-09-27T22:15:37.516Z,20.75
2022-09-27T22:18:10.244Z,23.67
2022-09-27T22:20:44.308Z,21.57
2022-09-27T22:23:16.976Z,22.15
2022-09-27T22:25:49.452Z,23.00
2022-09-27T22:28:23.143Z,22.07
2022-09-27T22:30:55.882Z,21.97
2022-09-27T22:33:29.542Z,22.30
2022-09-27T22:36:02.117Z,21.57
2022-09-27T22:38:36.185Z,22.67
2022-09-27T22:41:08.972Z,22.50
2022-09-27T22:43:41.771Z,24.18
2022-09-27T22:46:14.642Z,23.32
2022-09-27T22:48:47.117Z,21.40
2022-09-27T22:51:19.871Z,22.60
2022-09-27T22:53:52.411Z,23.15
2022-09-27T22:56:24.931Z,23.55
2022-09-27T22:58:58.010Z,22.95
2022-09-27T23:01:31.724Z,22.42
2022-09-27T23:04:04.417Z,22.60
2022-09-27T23:06:39.092Z,22.17
2022-09-27T23:09:12.328Z,22.45
2022-09-27T23:11:45.134Z,21.97
2022-09-27T23:14:19.818Z,22.37
2022-09-27T23:16:53.062Z,22.05
2022-09-27T23:19:27.150Z,21.75
2022-09-27T23:22:01.406Z,35.05
2022-09-27T23:24:33.882Z,40.63
2022-09-27T23:27:24.061Z,28.85
2022-09-27T23:29:56.507Z,24.45
2022-09-27T23:32:31.837Z,24.87
2022-09-27T23:35:03.765Z,22.07
2022-09-27T23:37:36.835Z,22.77
2022-09-27T23:40:31.621Z,20.48
2022-09-27T23:43:04.780Z,21.00
2022-09-27T23:45:39.169Z,21.62
2022-09-27T23:48:13.131Z,21.55
2022-09-27T23:50:45.864Z,22.05
2022-09-27T23:53:18.412Z,22.67
2022-09-27T23:56:08.124Z,21.42
2022-09-27T23:58:46.205Z,22.02
